Annemanie, AL

8:18 PM CDT on July 30, 2014 (GMT -0500)
Demopolis Municipal Airport (KDYA) Elev 112 ft | 32.46 °N, 87.95 °W | Change Station

Current weather conditions updated 23 minutes ago

Clear
Clear
77 °F
Feels Like 77 °F
N
4
Wind Variable Wind from NW

Tomorrow is forecast to be Warmer than today.

Today
High -- | Low -- °F
--% Chance of Precip.
Yesterday
High -- | Low -- °F
Precip. -- in
6:04 AM 7:48 PM
Waxing Crescent, 15% visible
Pressure 30.02 in
Visibility 10.0 miles
Clouds Clear
Dew Point 57 °F
Humidity 51%
Rainfall 0.00 in
Snow Depth Not available.
UV 0 out of 12
Pollen 5.50 out of 12
Air Quality Not available.
Flu Activity Not available.
METAR KDYA 310055Z AUTO 32003KT 10SM CLR 25/14 A3002 RMK AO2 T02480140

More Conditions Fewer Conditions

Pressure 30.02 in
Visibility 10.0 miles
Clouds Clear
Dew Point 57 °F
Humidity 51%
Rainfall 0.00 in
Snow Depth Not available.
UV 0 out of 12
Pollen 5.50 out of 12
Air Quality Not available.
Flu Activity Not available.
METAR KDYA 310055Z AUTO 32003KT 10SM CLR 25/14 A3002 RMK AO2 T02480140

More Conditions Fewer Conditions

10-Day Weather Forecast

Almanac

Astronomy

Jul. 30, 2014 Rise Set
Actual Time 6:04 AM CDT 7:48 PM CDT
Civil Twilight 5:37 AM CDT 8:15 PM CDT
Nautical Twilight 5:05 AM CDT 8:47 PM CDT
Astronomical Twilight 4:30 AM CDT 9:21 PM CDT
Moon 9:20 AM CDT (7/30) 9:48 PM CDT (7/30)
Length of Visible Light 14h 38m
Length of Day
13h 44m
Tomorrow will be 1m 25s shorter.
Waxing Crescent, 15% of the Moon is Illuminated
Today
Waxing Crescent
Aug 3
First Quarter
Aug 10
Full
Aug 17
Last Quarter
Aug 25
New

Today's Extremes

State Highs State Lows

Community

WunderPhotos

Upload Photos

1,739,261 photos uploaded!

Nearby

Snow Depth

Station Depth Elevation
No new snow has been reported.

Earthquake Activity

City Distance Mag. Time & Date
No recent earthquake activity has been reported nearby.
Minimum magnitude displayed is 2.5.

Coastal Water Temperatures

Place Temperature
No Stations Reporting

Nearby Weather Stations

Station Location Temp. Dew Point Humidity Wind Precip. Elev Updated Type
HCN THOMASVILLE 2 S AL , Thomasville, AL 71 °F - - North  at  - 0.00 in / hr 350 ft 7:40 PM CDT MADIS

Show More Stations Show Fewer Stations